Reward, Pennsylvania
Current Conditions -  °F | °C
As of 10:53 AM on Wednesday 22 Oct 2014 (Local Time) from KSEG Reporting Station
Overcast Overcast  
Wind Chill: 54°   Ceiling: 2200
Heat Index: 54°   Visibility: 10mi
Dew Point: 46°   Wind: 14mph
Humidity: 75%   Direction: 360°N
Pressure: 30.02"   Gusts: 22mph
Location:  40.5551°N, 77.1135°W
Report Text: KSEG 221453Z AUTO 36012G19KT 10SM BKN022 OVC029 12/08 A3002 RMK AO2 RAE00 SLP166 P0000 60000 T01220078 51004
Loading
Personal Weather Stations






























Interactive Weather Map
Tropical Storm Tracking
New forecast layout! Learn more

10-Day Weather Forecast

Advertisements
Track Severe Weather on mobile